Lawton, MI (49065)

12:58 AM EDT on August 29, 2014 (GMT -0400)
MesoWest Lawton MI US MAWN | Change Station
CLOSE
Current Station
Personal Weather Station
Location: Lawton, MI
Elevation: 823 ft
Nearby Weather Stations

Elev 823 ft 42.16 °N, 85.83 °W | Updated 58 minutes ago

Partly Cloudy
Partly Cloudy
65 °F
Feels Like 65 °F
N
6
Wind Variable Wind from ESE
Gusts 0.0 mph

Today
High -- | Low -- °F
--% Chance of Precip.
Yesterday
High -- | Low -- °F
Precip. -- in
7:05 AM 8:22 PM
Waxing Crescent, 12% visible
Pressure 30.11 in
Visibility 10.0 miles
Clouds Clear
Dew Point 55 °F
Humidity 70%
Rainfall -9999.00 in
Snow Depth Not available.
UV 0 out of 12
Pollen 9.80 out of 12
Ozone Good
PM2.5 Good
Flu Activity Not available.
METAR KAZO 290353Z AUTO 10004KT 10SM CLR 18/13 A3011 RMK AO2 SLP194 T01780128

More Conditions Fewer Conditions

Pressure 30.11 in
Visibility 10.0 miles
Clouds Clear
Dew Point 55 °F
Humidity 70%
Rainfall -9999.00 in
Snow Depth Not available.
UV 0 out of 12
Pollen 9.80 out of 12
Ozone Good
PM2.5 Good
Flu Activity Not available.
METAR KAZO 290353Z AUTO 10004KT 10SM CLR 18/13 A3011 RMK AO2 SLP194 T01780128

More Conditions Fewer Conditions

10-Day Weather Forecast

Almanac

Astronomy

Aug. 29, 2014 Rise Set
Actual Time 7:05 AM EDT 8:22 PM EDT
Civil Twilight 6:36 AM EDT 8:51 PM EDT
Nautical Twilight 6:01 AM EDT 9:25 PM EDT
Astronomical Twilight 5:25 AM EDT 10:02 PM EDT
Moon 10:59 AM EDT 10:14 PM EDT
Length of Visible Light 14h 14m
Length of Day
13h 16m
Tomorrow will be 2m 42s shorter.
Waxing Crescent, 12% of the Moon is Illuminated
Today
Waxing Crescent
Sep 2
First Quarter
Sep 8
Full
Sep 15
Last Quarter
Sep 24
New

Today's Extremes

State Highs State Lows

Community

WunderPhotos

Upload Photos

1,748,186 photos uploaded!

Nearby

Air Quality

  Air Quality AQ Index Pollutant
Yesterday Good
OZONE
Yesterday Good
PM2.5
Current Good
PM2.5
Current Good
OZONE
Thursday Good
OZONE
Thursday Good
PM2.5
Friday Good
OZONE
Friday Good
PM2.5

Snow Depth

Station Depth Elevation
No new snow has been reported.

Earthquake Activity

City Distance Mag. Time & Date
No recent earthquake activity has been reported nearby.
Minimum magnitude displayed is 2.5.

Coastal Water Temperatures

Place Temperature
Holland, MI 70.0 °F

Nearby Weather Stations